サンフランシスコ の空港の天気 - METARとTAF

サンフランシスコ国際空港 ( KSFO / SFO ) - アメリカ カリフォルニア州サンマテオ郡
飛行場実況気象(Metar)
観測時間10/28 10:56 PDT (10/28 17:56 UTC)
風向・風速静穏 0m/s
視程10km以上
天気現象
なし
気温17.2℃
湿度58%
気圧1019.8hPa
METARKSFO 281756Z 00000KT 10SM CLR 17/09 A3012 RMK AO2 SLP198 T01720089 10178 20111 50007
過去の天気等 Google飛行場航空写真 Wunderground天気予報

過去48時間のMETAR

飛行場予報(TAF)
発表時間: 10/28 10:28 PDT (10/28 17:28 UTC)
予報対象時間: 28日11時 PDT ~ 29日17時 PDT
風向・風速不定 3m/s
視程10km以上
なし
28日15時 PDT から
風向・風速西北西 5m/s
視程10km以上
なし
28日22時 PDT から
風向・風速不定 2m/s
視程10km以上
なし
KSFO 281728Z 2818/2924 VRB05KT P6SM SKC
FM282200 29009KT P6SM SKC
FM290500 VRB04KT P6SM SKC